Archival Weather

Tokyo Intl

Tokyo, Japan (RJTT)

Report from: Tuesday, November 21, 2023 4:30 AM JST
Current time: Sunday, February 25, 2024 1:16 AM JST

Current weather – Weather history – Daily summaries
Weather forecast

Temperature11.0°C (51.8°F)
Dew point3.0°C (37.4°F)
Winds 13 kts (6.7 m/s, 15 mph) North (360°)
Clouds Sky clear
Altimeter30.18 in.Hg (1022 mB)
Relative humidity58 %
Density altitude-660 ft. (-201 m)
Remarks Ceiling and visibility OK
No significant changes expected in the next two hours
Flight conditions Visual Meteorological Conditions
Raw dataRJTT 201930Z 36013KT CAVOK 11/03 Q1022 NOSIG RMK A3018
An error has occurred. This application may no longer respond until reloaded. Reload 🗙